Archival Weather

Vermilion Rgnl

Danville, Illinois (KDNV)

Report from: Saturday, April 13, 2024 10:55 AM CDT
Current time: Sunday, July 14, 2024 5:51 AM CDT

Current weather – Weather history – Daily summaries
Weather forecast

Temperature16.4°C (61.5°F)
Dew point1.7°C (35.1°F)
Winds 8 kts (4.1 m/s, 9.2 mph) West (260°)
Visibility10 mi. (16.1 km)
Clouds Sky clear
Altimeter30.16 in.Hg (1021 mB)
Relative humidity37 %
Density altitude-1 ft. (-0 m)
Remarks Fully automated report
Automated weather observing station with precipitation discriminator
Flight conditions Visual Meteorological Conditions
Raw dataKDNV 131555Z AUTO 26008KT 10SM CLR 16/02 A3016 RMK AO2 T01640017
An error has occurred. This application may no longer respond until reloaded. Reload 🗙